Time;durP1;ratioP1;P1;durP2;ratioP2;P2;SDS_P1;SDS_P2;PMS_P1;PMS_P2;Temp;Humidity;BMP_temperature;BMP_pressure;BME280_temperature;BME280_humidity;BME280_pressure;Samples;Min_cycle;Max_cycle;Signal;HPM_P1;HPM_P2
2023/12/22 00:01:52;;;;;;;10.07;2.70;;;;;;;;;;5034589;28;20395;-67
2023/12/22 00:04:18;;;;;;;9.50;2.50;;;;;;;;;;5035402;28;20383;-67
2023/12/22 00:06:44;;;;;;;10.02;2.70;;;;;;;;;;5017907;28;20996;-67
2023/12/22 00:09:10;;;;;;;7.57;2.40;;;;;;;;;;5036060;28;20387;-66
2023/12/22 00:11:36;;;;;;;11.88;2.58;;;;;;;;;;5023522;28;20398;-67
2023/12/22 00:14:02;;;;;;;7.83;2.23;;;;;;;;;;5047339;28;20391;-68
2023/12/22 00:16:28;;;;;;;10.43;2.42;;;;;;;;;;5027859;28;20434;-68
2023/12/22 00:18:55;;;;;;;10.70;2.47;;;;;;;;;;5045433;28;20979;-68
2023/12/22 00:21:21;;;;;;;9.50;2.53;;;;;;;;;;5028277;28;20849;-70
2023/12/22 00:23:47;;;;;;;9.45;2.20;;;;;;;;;;5047712;28;20397;-68
2023/12/22 00:26:15;;;;;;;7.65;2.53;;;;;;;;;;5029638;28;20391;-67
2023/12/22 00:28:41;;;;;;;13.65;2.42;;;;;;;;;;5048187;28;20735;-67
2023/12/22 00:31:08;;;;;;;10.03;2.57;;;;;;;;;;5044611;28;20400;-68
2023/12/22 00:33:34;;;;;;;10.35;2.70;;;;;;;;;;5043295;28;20387;-67
2023/12/22 00:36:00;;;;;;;10.18;2.45;;;;;;;;;;5041921;28;20458;-68
2023/12/22 00:38:26;;;;;;;15.23;2.92;;;;;;;;;;5021778;28;20445;-67
2023/12/22 00:40:52;;;;;;;11.77;2.80;;;;;;;;;;5043101;28;20414;-68
2023/12/22 00:43:18;;;;;;;10.35;2.75;;;;;;;;;;5031743;28;20387;-66
2023/12/22 00:45:44;;;;;;;9.13;2.72;;;;;;;;;;5035611;28;20378;-67
2023/12/22 00:48:10;;;;;;;13.60;3.70;;;;;;;;;;5034318;28;20383;-68
2023/12/22 00:50:36;;;;;;;14.13;2.70;;;;;;;;;;5033805;28;20856;-68
2023/12/22 00:53:02;;;;;;;13.77;2.63;;;;;;;;;;5034030;28;20367;-68
2023/12/22 00:55:28;;;;;;;11.77;2.80;;;;;;;;;;5034663;28;20785;-68
2023/12/22 00:57:54;;;;;;;8.93;2.80;;;;;;;;;;5033958;28;20462;-68
2023/12/22 01:00:20;;;;;;;15.75;3.00;;;;;;;;;;5016056;28;20833;-68
2023/12/22 01:02:45;;;;;;;10.80;2.60;;;;;;;;;;5033545;28;20894;-68
2023/12/22 01:05:11;;;;;;;8.15;2.75;;;;;;;;;;5033442;28;20459;-68
2023/12/22 01:07:37;;;;;;;14.13;2.60;;;;;;;;;;5033693;28;20375;-68
2023/12/22 01:10:03;;;;;;;15.70;3.03;;;;;;;;;;5033277;28;20462;-67
2023/12/22 01:12:30;;;;;;;13.13;2.90;;;;;;;;;;5033830;28;20375;-68
2023/12/22 01:14:57;;;;;;;10.60;2.63;;;;;;;;;;5034212;28;20505;-68
2023/12/22 01:17:23;;;;;;;8.65;2.30;;;;;;;;;;5033224;28;20371;-68
2023/12/22 01:19:49;;;;;;;11.13;2.53;;;;;;;;;;5034190;28;20753;-68
2023/12/22 01:22:15;;;;;;;8.98;2.60;;;;;;;;;;5015999;28;20406;-67
2023/12/22 01:24:43;;;;;;;11.32;2.72;;;;;;;;;;5033526;28;20379;-67
2023/12/22 01:27:09;;;;;;;10.55;2.78;;;;;;;;;;5033237;28;20379;-67
2023/12/22 01:29:35;;;;;;;12.70;2.90;;;;;;;;;;5015928;28;20422;-67
2023/12/22 01:32:01;;;;;;;12.30;2.42;;;;;;;;;;5015585;28;20437;-68
2023/12/22 01:34:27;;;;;;;12.68;2.67;;;;;;;;;;5033682;28;20433;-68
2023/12/22 01:36:53;;;;;;;10.73;2.28;;;;;;;;;;5033789;28;20437;-68
2023/12/22 01:39:19;;;;;;;9.23;2.60;;;;;;;;;;5015716;28;20439;-67
2023/12/22 01:41:45;;;;;;;8.30;2.10;;;;;;;;;;5035694;28;20378;-68
2023/12/22 01:44:11;;;;;;;13.73;3.63;;;;;;;;;;5037956;28;20375;-68
2023/12/22 01:46:37;;;;;;;12.90;2.90;;;;;;;;;;5037962;28;20470;-69
2023/12/22 01:49:04;;;;;;;7.40;2.20;;;;;;;;;;5037840;28;20387;-69
2023/12/22 01:51:30;;;;;;;7.40;1.83;;;;;;;;;;5019716;28;20391;-68
2023/12/22 01:53:56;;;;;;;6.93;1.70;;;;;;;;;;5037957;28;20477;-68
2023/12/22 01:56:22;;;;;;;6.80;2.20;;;;;;;;;;5038769;28;20844;-68
2023/12/22 01:58:50;;;;;;;7.88;2.67;;;;;;;;;;5030140;28;20415;-68
2023/12/22 02:01:16;;;;;;;7.68;2.17;;;;;;;;;;5054226;28;20399;-69
2023/12/22 02:03:42;;;;;;;6.00;2.20;;;;;;;;;;5054635;28;20379;-68
2023/12/22 02:06:08;;;;;;;8.98;1.98;;;;;;;;;;5054204;28;20387;-68
2023/12/22 02:08:34;;;;;;;7.75;1.85;;;;;;;;;;5054871;28;20406;-69
2023/12/22 02:11:00;;;;;;;8.23;1.80;;;;;;;;;;5054921;28;20383;-68
2023/12/22 02:13:26;;;;;;;7.80;1.95;;;;;;;;;;5036586;28;20434;-68
2023/12/22 02:15:56;;;;;;;8.40;1.70;;;;;;;;;;5054778;28;20417;-67
2023/12/22 02:18:25;;;;;;;7.97;2.10;;;;;;;;;;5054203;28;20379;-68
2023/12/22 02:20:51;;;;;;;11.00;2.53;;;;;;;;;;5054526;28;20393;-68
2023/12/22 02:23:17;;;;;;;9.10;1.70;;;;;;;;;;5037062;28;20382;-69
2023/12/22 02:25:43;;;;;;;7.45;2.15;;;;;;;;;;5054509;28;20391;-68
2023/12/22 02:28:11;;;;;;;11.88;2.70;;;;;;;;;;5055373;28;20387;-68
2023/12/22 02:30:46;;;;;;;8.77;2.55;;;;;;;;;;5056841;28;20389;-69
2023/12/22 02:33:13;;;;;;;10.93;2.53;;;;;;;;;;5056563;28;20383;-68
2023/12/22 02:35:41;;;;;;;9.27;1.98;;;;;;;;;;5056040;28;20422;-69
2023/12/22 02:38:08;;;;;;;9.37;2.23;;;;;;;;;;5054161;28;20440;-68
2023/12/22 02:40:35;;;;;;;8.07;2.38;;;;;;;;;;5055060;28;20426;-68
2023/12/22 02:43:02;;;;;;;9.73;2.30;;;;;;;;;;5056742;28;20455;-69
2023/12/22 02:45:30;;;;;;;9.63;2.28;;;;;;;;;;5054879;28;20406;-68
2023/12/22 02:47:56;;;;;;;7.68;1.75;;;;;;;;;;5054987;28;20435;-68
2023/12/22 02:50:22;;;;;;;10.55;2.40;;;;;;;;;;5054460;28;20391;-68
2023/12/22 02:52:47;;;;;;;10.90;2.55;;;;;;;;;;5052998;28;20401;-68
2023/12/22 02:55:13;;;;;;;9.57;2.45;;;;;;;;;;5031103;28;20452;-67
2023/12/22 02:57:39;;;;;;;10.23;2.50;;;;;;;;;;5055830;28;20391;-69
2023/12/22 03:00:06;;;;;;;10.07;2.60;;;;;;;;;;5054362;28;20434;-68
2023/12/22 03:02:32;;;;;;;11.02;2.45;;;;;;;;;;5052533;28;20455;-68
2023/12/22 03:04:58;;;;;;;10.65;2.58;;;;;;;;;;5054431;28;20406;-68
2023/12/22 03:07:24;;;;;;;11.70;2.65;;;;;;;;;;5053673;28;20423;-68
2023/12/22 03:09:50;;;;;;;8.80;2.30;;;;;;;;;;5055825;28;20510;-69
2023/12/22 03:12:16;;;;;;;13.85;3.13;;;;;;;;;;5055246;28;20425;-66
2023/12/22 03:14:41;;;;;;;8.63;2.42;;;;;;;;;;5037243;28;20379;-66
2023/12/22 03:17:09;;;;;;;9.73;2.30;;;;;;;;;;5036751;28;20430;-67
2023/12/22 03:19:35;;;;;;;14.93;2.88;;;;;;;;;;5035424;28;20427;-67
2023/12/22 03:22:01;;;;;;;11.07;2.42;;;;;;;;;;5053301;28;20398;-68
2023/12/22 03:24:28;;;;;;;11.02;2.78;;;;;;;;;;5054512;28;20371;-68
2023/12/22 03:26:54;;;;;;;11.50;2.87;;;;;;;;;;5037622;28;20545;-68
2023/12/22 03:29:20;;;;;;;12.50;2.28;;;;;;;;;;5036605;28;20391;-68
2023/12/22 03:31:47;;;;;;;15.63;2.78;;;;;;;;;;5054047;28;20379;-68
2023/12/22 03:34:13;;;;;;;10.20;2.47;;;;;;;;;;5036586;28;20394;-68
2023/12/22 03:36:39;;;;;;;14.98;3.65;;;;;;;;;;5054250;28;20390;-68
2023/12/22 03:39:05;;;;;;;13.48;2.90;;;;;;;;;;5054813;28;20407;-69
2023/12/22 03:41:31;;;;;;;18.27;3.60;;;;;;;;;;5053636;28;20446;-68
2023/12/22 03:43:58;;;;;;;16.38;3.13;;;;;;;;;;5052951;28;20415;-68
2023/12/22 03:46:24;;;;;;;16.40;2.70;;;;;;;;;;5051946;28;20447;-68
2023/12/22 03:48:53;;;;;;;17.65;3.05;;;;;;;;;;5052951;28;20461;-68
2023/12/22 03:51:19;;;;;;;11.27;2.78;;;;;;;;;;5035928;28;20801;-68
2023/12/22 03:53:45;;;;;;;10.55;2.67;;;;;;;;;;5035812;28;20387;-68
2023/12/22 03:56:11;;;;;;;14.45;3.20;;;;;;;;;;5035433;28;20931;-69
2023/12/22 03:58:37;;;;;;;9.25;2.60;;;;;;;;;;5051740;28;20417;-68
2023/12/22 04:01:04;;;;;;;13.57;2.90;;;;;;;;;;5051673;28;20407;-68
2023/12/22 04:03:29;;;;;;;13.35;3.33;;;;;;;;;;5031517;28;20414;-69
2023/12/22 04:05:55;;;;;;;16.33;3.25;;;;;;;;;;5050696;28;20383;-68
2023/12/22 04:08:21;;;;;;;18.13;3.85;;;;;;;;;;5049171;28;20371;-68
2023/12/22 04:10:48;;;;;;;19.92;3.75;;;;;;;;;;5046065;28;20789;-69
2023/12/22 04:13:14;;;;;;;18.77;4.07;;;;;;;;;;5046355;28;20387;-68
2023/12/22 04:15:40;;;;;;;11.98;3.53;;;;;;;;;;5049065;28;20371;-68
2023/12/22 04:18:06;;;;;;;19.55;4.10;;;;;;;;;;5050997;28;20429;-68
2023/12/22 04:20:32;;;;;;;13.70;3.30;;;;;;;;;;5049415;28;20415;-68
2023/12/22 04:22:58;;;;;;;16.53;3.40;;;;;;;;;;5033260;28;20431;-68
2023/12/22 04:25:25;;;;;;;17.10;4.07;;;;;;;;;;5051101;28;20371;-67
2023/12/22 04:27:51;;;;;;;17.30;3.72;;;;;;;;;;5051256;28;20394;-68
2023/12/22 04:30:17;;;;;;;16.63;3.70;;;;;;;;;;5050587;28;20419;-68
2023/12/22 04:32:44;;;;;;;17.65;3.75;;;;;;;;;;5050464;28;20919;-68
2023/12/22 04:35:10;;;;;;;18.30;4.03;;;;;;;;;;5052156;28;20376;-68
2023/12/22 04:37:36;;;;;;;18.45;4.32;;;;;;;;;;5052154;28;20403;-68
2023/12/22 04:40:02;;;;;;;17.63;4.22;;;;;;;;;;5052245;28;20411;-68
2023/12/22 04:42:29;;;;;;;17.00;4.15;;;;;;;;;;5034822;28;20415;-68
2023/12/22 04:44:55;;;;;;;19.23;4.05;;;;;;;;;;5052930;28;20407;-69
2023/12/22 04:47:21;;;;;;;22.60;4.50;;;;;;;;;;5051911;28;20410;-70
2023/12/22 04:49:47;;;;;;;20.35;4.22;;;;;;;;;;5033187;28;20402;-69
2023/12/22 04:52:13;;;;;;;13.07;3.83;;;;;;;;;;5033624;28;20432;-71
2023/12/22 04:54:39;;;;;;;21.55;4.32;;;;;;;;;;5053731;28;20417;-68
2023/12/22 04:57:05;;;;;;;13.57;3.83;;;;;;;;;;5033292;28;20785;-71
2023/12/22 04:59:31;;;;;;;17.05;3.70;;;;;;;;;;5054860;28;20411;-69
2023/12/22 05:01:57;;;;;;;20.67;3.97;;;;;;;;;;5030314;28;20395;-69
2023/12/22 05:04:23;;;;;;;16.00;4.30;;;;;;;;;;5036019;28;20453;-68
2023/12/22 05:06:49;;;;;;;18.90;3.77;;;;;;;;;;5035101;28;20387;-69
2023/12/22 05:09:15;;;;;;;20.08;4.53;;;;;;;;;;5049453;28;20421;-69
2023/12/22 05:11:42;;;;;;;16.40;3.45;;;;;;;;;;5029191;28;20384;-69
2023/12/22 05:14:08;;;;;;;14.63;2.75;;;;;;;;;;5046777;28;20395;-68
2023/12/22 05:16:34;;;;;;;11.68;3.03;;;;;;;;;;5045500;28;20391;-68
2023/12/22 05:19:00;;;;;;;10.43;2.67;;;;;;;;;;5028673;28;20490;-70
2023/12/22 05:21:27;;;;;;;9.80;2.20;;;;;;;;;;5049927;28;20202;-69
2023/12/22 05:23:53;;;;;;;8.57;2.00;;;;;;;;;;5032490;28;20179;-69
2023/12/22 05:26:20;;;;;;;7.83;1.77;;;;;;;;;;5051179;28;20186;-69
2023/12/22 05:28:46;;;;;;;4.20;1.40;;;;;;;;;;5051335;28;20183;-69
2023/12/22 05:31:12;;;;;;;6.87;2.10;;;;;;;;;;5050975;28;20287;-70
2023/12/22 05:33:38;;;;;;;6.73;2.20;;;;;;;;;;5051254;28;20182;-70
2023/12/22 05:36:04;;;;;;;7.90;1.97;;;;;;;;;;5031522;28;20203;-70
2023/12/22 05:38:31;;;;;;;9.33;2.17;;;;;;;;;;5050017;28;20179;-70
2023/12/22 05:40:57;;;;;;;3.87;1.47;;;;;;;;;;5051504;28;20286;-69
2023/12/22 05:43:22;;;;;;;6.13;1.80;;;;;;;;;;5051995;28;20175;-69
2023/12/22 05:45:48;;;;;;;10.40;2.30;;;;;;;;;;5051515;28;20175;-71
2023/12/22 05:48:14;;;;;;;12.37;2.43;;;;;;;;;;5051391;28;20182;-69
2023/12/22 05:53:12;;;;;;;11.17;2.97;;;;;;;;;;5014684;28;20809;-73
2023/12/22 05:55:38;;;;;;;13.93;2.43;;;;;;;;;;5015046;28;20199;-72
2023/12/22 05:58:05;;;;;;;10.63;2.73;;;;;;;;;;5015529;28;20176;-73
2023/12/22 06:00:31;;;;;;;9.03;2.43;;;;;;;;;;5015572;28;20199;-72
2023/12/22 06:02:57;;;;;;;7.53;2.27;;;;;;;;;;4997329;28;20243;-71
2023/12/22 06:05:23;;;;;;;11.30;1.97;;;;;;;;;;4998116;28;20187;-72
2023/12/22 06:07:50;;;;;;;11.13;2.27;;;;;;;;;;5021431;28;20176;-75
2023/12/22 06:10:15;;;;;;;15.77;3.00;;;;;;;;;;5006487;28;20654;-73
2023/12/22 06:12:41;;;;;;;11.23;2.67;;;;;;;;;;5025553;28;20205;-74
2023/12/22 06:15:07;;;;;;;17.53;2.67;;;;;;;;;;5007556;28;20237;-75
2023/12/22 06:17:33;;;;;;;14.57;2.97;;;;;;;;;;5026123;28;20188;-73
2023/12/22 06:19:59;;;;;;;14.23;3.23;;;;;;;;;;5029302;28;20230;-74
2023/12/22 06:22:25;;;;;;;14.53;4.40;;;;;;;;;;5011060;28;20210;-73
2023/12/22 06:24:51;;;;;;;20.63;5.67;;;;;;;;;;5011475;28;20183;-74
2023/12/22 06:27:17;;;;;;;15.70;3.93;;;;;;;;;;5013190;28;20275;-74
2023/12/22 06:29:44;;;;;;;11.03;3.30;;;;;;;;;;5035106;28;20171;-74
2023/12/22 06:32:10;;;;;;;18.57;3.90;;;;;;;;;;5031188;28;20283;-74
2023/12/22 06:34:36;;;;;;;16.63;3.53;;;;;;;;;;5001921;28;20207;-74
2023/12/22 06:37:02;;;;;;;11.60;2.47;;;;;;;;;;5001621;28;20219;-75
2023/12/22 06:39:28;;;;;;;13.73;3.70;;;;;;;;;;5019524;28;20228;-74
2023/12/22 06:41:54;;;;;;;13.37;3.33;;;;;;;;;;5019076;28;20330;-74
2023/12/22 06:44:20;;;;;;;24.27;4.33;;;;;;;;;;5020031;28;20208;-75
2023/12/22 06:46:46;;;;;;;26.43;4.00;;;;;;;;;;5019129;28;20195;-71
2023/12/22 06:49:12;;;;;;;17.23;3.87;;;;;;;;;;5001198;28;20661;-74
2023/12/22 06:51:38;;;;;;;28.63;3.90;;;;;;;;;;5002985;28;20223;-75
2023/12/22 06:54:07;;;;;;;18.30;3.70;;;;;;;;;;5022113;28;20176;-74
2023/12/22 06:56:34;;;;;;;16.00;3.87;;;;;;;;;;5005384;28;20586;-75
2023/12/22 06:59:00;;;;;;;19.70;3.70;;;;;;;;;;5001165;28;20207;-74
2023/12/22 07:01:32;;;;;;;16.40;3.57;;;;;;;;;;5019269;28;20195;-73
2023/12/22 07:04:02;;;;;;;13.90;4.97;;;;;;;;;;5018821;28;20526;-73
2023/12/22 07:06:29;;;;;;;8.57;3.40;;;;;;;;;;5001270;28;20565;-73
2023/12/22 07:09:15;;;;;;;14.00;3.17;;;;;;;;;;5000878;28;20241;-69
2023/12/22 07:11:42;;;;;;;18.57;2.73;;;;;;;;;;4999915;28;20234;-68
2023/12/22 07:14:08;;;;;;;14.00;2.80;;;;;;;;;;5017519;28;20191;-68
2023/12/22 07:16:37;;;;;;;8.03;2.53;;;;;;;;;;5000228;28;20180;-69
2023/12/22 07:19:03;;;;;;;12.60;3.03;;;;;;;;;;5017908;28;20207;-68
2023/12/22 07:21:29;;;;;;;11.23;2.70;;;;;;;;;;5018650;28;20202;-69
2023/12/22 07:23:55;;;;;;;9.77;3.10;;;;;;;;;;5017743;28;20722;-67
2023/12/22 07:26:24;;;;;;;16.10;3.57;;;;;;;;;;5000100;28;20180;-68
2023/12/22 07:28:50;;;;;;;14.83;3.43;;;;;;;;;;5000353;28;20184;-71
2023/12/22 07:31:17;;;;;;;15.20;3.77;;;;;;;;;;5017112;28;20200;-68
2023/12/22 07:33:43;;;;;;;12.03;3.03;;;;;;;;;;4998801;28;20187;-69
2023/12/22 07:36:09;;;;;;;11.30;2.87;;;;;;;;;;5017646;28;20637;-69
2023/12/22 07:38:36;;;;;;;16.03;3.60;;;;;;;;;;4999515;28;20180;-69
2023/12/22 07:41:02;;;;;;;15.33;2.73;;;;;;;;;;4999766;28;20207;-70
2023/12/22 07:43:29;;;;;;;11.07;3.33;;;;;;;;;;5017947;28;20311;-69
2023/12/22 07:45:55;;;;;;;20.40;4.30;;;;;;;;;;5017451;28;20198;-69
2023/12/22 07:48:21;;;;;;;12.97;2.80;;;;;;;;;;4999901;28;20603;-70
2023/12/22 07:50:47;;;;;;;14.27;3.47;;;;;;;;;;5017611;28;20191;-69
2023/12/22 07:53:13;;;;;;;10.00;3.23;;;;;;;;;;5017175;28;20180;-68
2023/12/22 07:55:40;;;;;;;14.00;3.33;;;;;;;;;;5000165;28;20246;-69
2023/12/22 07:58:05;;;;;;;14.87;4.17;;;;;;;;;;5017195;28;20179;-69
2023/12/22 08:00:32;;;;;;;18.20;3.70;;;;;;;;;;5017246;28;20208;-70
2023/12/22 08:02:58;;;;;;;14.53;3.40;;;;;;;;;;5016527;28;20210;-74
2023/12/22 08:05:25;;;;;;;17.33;4.27;;;;;;;;;;4999547;28;20674;-71
2023/12/22 08:07:51;;;;;;;18.70;4.37;;;;;;;;;;5016458;28;20187;-68
2023/12/22 08:10:17;;;;;;;17.63;4.87;;;;;;;;;;4998890;28;20192;-71
2023/12/22 08:12:43;;;;;;;20.87;4.33;;;;;;;;;;5017356;28;20218;-69
2023/12/22 08:15:10;;;;;;;28.37;5.83;;;;;;;;;;5016829;28;20180;-70
2023/12/22 08:17:37;;;;;;;24.37;5.47;;;;;;;;;;4999573;28;20183;-69
2023/12/22 08:20:04;;;;;;;24.43;5.20;;;;;;;;;;4999189;28;20234;-72
2023/12/22 08:22:30;;;;;;;23.97;4.80;;;;;;;;;;4999112;28;20199;-70
2023/12/22 08:24:56;;;;;;;24.80;5.90;;;;;;;;;;5017208;28;20556;-68
2023/12/22 08:27:22;;;;;;;24.33;4.97;;;;;;;;;;4998853;28;20589;-70
2023/12/22 08:29:48;;;;;;;29.40;6.63;;;;;;;;;;4997994;28;20270;-68
2023/12/22 08:32:14;;;;;;;31.67;6.23;;;;;;;;;;5015785;28;20234;-68
2023/12/22 08:34:40;;;;;;;31.43;5.73;;;;;;;;;;5016219;28;20187;-68
2023/12/22 08:37:06;;;;;;;33.47;6.50;;;;;;;;;;5016515;28;20180;-70
2023/12/22 08:39:32;;;;;;;28.13;6.20;;;;;;;;;;5016256;28;20199;-69
2023/12/22 08:41:58;;;;;;;29.73;5.43;;;;;;;;;;5015848;28;20200;-69
2023/12/22 08:44:23;;;;;;;30.07;6.17;;;;;;;;;;5016116;28;20180;-69
2023/12/22 08:46:49;;;;;;;35.80;8.10;;;;;;;;;;5016067;28;20179;-69
2023/12/22 08:49:15;;;;;;;29.57;7.40;;;;;;;;;;4998945;28;20184;-72
2023/12/22 08:51:42;;;;;;;25.27;7.13;;;;;;;;;;4997930;28;20226;-72
2023/12/22 08:54:08;;;;;;;32.30;6.03;;;;;;;;;;5015766;28;20191;-70
2023/12/22 08:56:35;;;;;;;25.97;6.00;;;;;;;;;;4997750;28;20564;-69
2023/12/22 08:59:01;;;;;;;31.10;5.77;;;;;;;;;;5015217;28;20211;-70
2023/12/22 09:01:27;;;;;;;30.87;7.27;;;;;;;;;;5014073;28;20207;-73
2023/12/22 09:03:53;;;;;;;27.33;5.53;;;;;;;;;;5013585;28;20544;-70
2023/12/22 09:06:20;;;;;;;27.47;6.10;;;;;;;;;;5015099;28;20211;-70
2023/12/22 09:08:47;;;;;;;26.53;5.83;;;;;;;;;;5015431;28;20634;-70
2023/12/22 09:11:14;;;;;;;35.83;6.97;;;;;;;;;;5014286;28;20200;-69
2023/12/22 09:13:41;;;;;;;34.57;7.47;;;;;;;;;;4997173;28;20209;-71
2023/12/22 09:16:08;;;;;;;27.77;7.07;;;;;;;;;;4998063;28;20241;-70
2023/12/22 09:18:34;;;;;;;26.67;6.63;;;;;;;;;;4997251;28;20271;-69
2023/12/22 09:21:00;;;;;;;40.33;7.97;;;;;;;;;;5015245;28;20250;-68
2023/12/22 09:23:26;;;;;;;29.57;6.30;;;;;;;;;;4997361;28;20221;-72
2023/12/22 09:25:52;;;;;;;27.83;6.83;;;;;;;;;;5015029;28;20171;-70
2023/12/22 09:28:18;;;;;;;29.77;6.23;;;;;;;;;;5014654;28;20634;-70
2023/12/22 09:30:44;;;;;;;22.87;5.77;;;;;;;;;;5014628;28;20192;-69
2023/12/22 09:33:10;;;;;;;19.40;4.70;;;;;;;;;;5014862;28;20183;-70
2023/12/22 09:35:36;;;;;;;25.23;6.47;;;;;;;;;;4998295;28;20237;-69
2023/12/22 09:38:03;;;;;;;20.00;4.93;;;;;;;;;;5015728;28;20230;-71
2023/12/22 09:40:29;;;;;;;27.83;6.53;;;;;;;;;;5015343;28;20203;-69
2023/12/22 09:42:56;;;;;;;22.20;5.73;;;;;;;;;;4996965;28;20204;-72
2023/12/22 09:45:22;;;;;;;26.10;7.40;;;;;;;;;;4996923;28;20212;-72
2023/12/22 09:47:48;;;;;;;27.53;5.97;;;;;;;;;;4997646;28;20267;-69
2023/12/22 09:50:15;;;;;;;31.10;6.47;;;;;;;;;;5014813;28;20237;-70
2023/12/22 09:52:46;;;;;;;28.27;5.73;;;;;;;;;;4997108;28;20309;-70
2023/12/22 09:55:15;;;;;;;17.70;5.70;;;;;;;;;;5015157;28;20160;-69
2023/12/22 09:57:41;;;;;;;22.80;4.83;;;;;;;;;;5015041;28;20187;-67
2023/12/22 10:00:09;;;;;;;25.80;4.90;;;;;;;;;;5014568;28;20223;-69
2023/12/22 10:02:36;;;;;;;22.88;5.68;;;;;;;;;;4997947;28;20388;-69
2023/12/22 10:05:03;;;;;;;15.73;4.50;;;;;;;;;;5018492;28;20471;-69
2023/12/22 10:07:30;;;;;;;22.40;4.75;;;;;;;;;;5000444;28;20385;-70
2023/12/22 10:09:57;;;;;;;18.70;4.13;;;;;;;;;;5018104;28;20447;-69
2023/12/22 10:12:23;;;;;;;15.48;4.32;;;;;;;;;;5000207;28;20476;-68
2023/12/22 10:14:50;;;;;;;16.27;4.00;;;;;;;;;;5018066;28;20389;-70
2023/12/22 10:17:16;;;;;;;14.50;3.80;;;;;;;;;;5018020;28;20424;-70
2023/12/22 10:19:43;;;;;;;15.40;3.88;;;;;;;;;;5000312;28;20918;-71
2023/12/22 10:22:08;;;;;;;14.43;3.85;;;;;;;;;;5018557;28;20377;-70
2023/12/22 10:24:47;;;;;;;15.15;3.83;;;;;;;;;;5000425;28;20381;-71
2023/12/22 10:27:13;;;;;;;13.30;3.72;;;;;;;;;;5018360;28;20431;-69
2023/12/22 10:29:39;;;;;;;12.00;3.20;;;;;;;;;;5017486;28;20470;-72
2023/12/22 10:32:06;;;;;;;9.93;3.50;;;;;;;;;;4999990;28;20399;-71
2023/12/22 10:34:32;;;;;;;15.15;3.85;;;;;;;;;;5017508;28;20393;-71
2023/12/22 10:37:02;;;;;;;9.90;3.27;;;;;;;;;;5000217;28;20813;-71
2023/12/22 10:39:29;;;;;;;9.18;2.83;;;;;;;;;;5000009;28;20453;-71
2023/12/22 10:41:55;;;;;;;7.63;2.38;;;;;;;;;;4999885;28;20395;-73
2023/12/22 10:44:24;;;;;;;11.90;3.15;;;;;;;;;;4999490;28;20373;-72
2023/12/22 10:46:50;;;;;;;11.93;3.28;;;;;;;;;;5017323;28;20411;-70
2023/12/22 10:49:16;;;;;;;10.63;4.45;;;;;;;;;;4999974;28;20400;-73
2023/12/22 10:51:42;;;;;;;14.52;5.30;;;;;;;;;;4999660;28;20409;-71
2023/12/22 10:54:09;;;;;;;12.07;3.95;;;;;;;;;;4999402;28;20421;-70
2023/12/22 10:56:35;;;;;;;11.32;3.45;;;;;;;;;;5003653;28;20381;-70
2023/12/22 10:59:03;;;;;;;13.30;3.87;;;;;;;;;;5021441;28;20875;-70
2023/12/22 11:01:29;;;;;;;10.00;3.60;;;;;;;;;;5000288;28;20393;-70
2023/12/22 11:03:58;;;;;;;10.57;3.45;;;;;;;;;;4998765;28;20384;-70
2023/12/22 11:06:26;;;;;;;10.90;2.88;;;;;;;;;;4998926;28;20390;-70
2023/12/22 11:08:53;;;;;;;12.32;3.67;;;;;;;;;;4998806;28;20802;-70
2023/12/22 11:11:34;;;;;;;12.90;3.70;;;;;;;;;;5015748;28;20389;-69
2023/12/22 11:14:00;;;;;;;10.90;3.33;;;;;;;;;;4998564;28;20389;-69
2023/12/22 11:16:28;;;;;;;9.25;3.65;;;;;;;;;;5016067;28;20388;-70
2023/12/22 11:18:57;;;;;;;12.02;3.75;;;;;;;;;;5016289;28;20408;-75
2023/12/22 11:21:24;;;;;;;8.35;3.00;;;;;;;;;;4998120;28;20433;-70
2023/12/22 11:23:54;;;;;;;9.65;3.20;;;;;;;;;;5015572;28;20381;-69
2023/12/22 11:26:21;;;;;;;8.10;3.07;;;;;;;;;;5016156;28;20784;-69
2023/12/22 11:28:47;;;;;;;8.65;2.83;;;;;;;;;;4998519;28;20385;-70
2023/12/22 11:31:14;;;;;;;8.15;3.20;;;;;;;;;;5015965;28;20385;-69
2023/12/22 11:33:47;;;;;;;6.05;2.78;;;;;;;;;;5014897;28;20391;-70
2023/12/22 11:36:14;;;;;;;6.93;2.55;;;;;;;;;;4997990;28;20943;-73
2023/12/22 11:38:44;;;;;;;7.28;2.53;;;;;;;;;;5015454;28;20787;-69
2023/12/22 11:41:11;;;;;;;6.43;2.17;;;;;;;;;;5014294;28;20385;-70
2023/12/22 11:43:39;;;;;;;5.78;2.10;;;;;;;;;;5014750;28;20399;-68
2023/12/22 11:46:05;;;;;;;4.55;2.10;;;;;;;;;;5015085;28;20377;-70
2023/12/22 11:48:31;;;;;;;6.07;2.43;;;;;;;;;;5014737;28;20411;-70
2023/12/22 11:50:57;;;;;;;6.38;3.45;;;;;;;;;;5014658;28;20455;-69
2023/12/22 11:53:24;;;;;;;7.78;3.67;;;;;;;;;;5015207;28;20393;-69
2023/12/22 11:56:02;;;;;;;9.20;5.20;;;;;;;;;;4997086;28;20397;-69
2023/12/22 11:58:38;;;;;;;8.90;3.97;;;;;;;;;;5014185;28;20377;-69
2023/12/22 12:01:23;;;;;;;6.30;2.50;;;;;;;;;;4996800;28;20543;-72
2023/12/22 12:03:53;;;;;;;7.72;2.25;;;;;;;;;;4996368;28;20433;-71
2023/12/22 12:06:30;;;;;;;5.00;1.83;;;;;;;;;;4996297;28;20382;-72
2023/12/22 12:08:57;;;;;;;4.43;1.95;;;;;;;;;;5013578;28;20388;-71
2023/12/22 12:11:24;;;;;;;6.13;1.70;;;;;;;;;;4995823;28;20409;-71
2023/12/22 12:13:50;;;;;;;6.32;2.35;;;;;;;;;;5013408;28;20439;-71
2023/12/22 12:16:21;;;;;;;7.32;2.45;;;;;;;;;;5013281;28;20439;-70
2023/12/22 12:18:47;;;;;;;5.13;2.00;;;;;;;;;;4995470;28;20437;-70
2023/12/22 12:21:13;;;;;;;3.70;2.25;;;;;;;;;;4995244;28;20388;-70
2023/12/22 12:23:41;;;;;;;6.10;2.30;;;;;;;;;;5013058;28;20435;-71
2023/12/22 12:26:08;;;;;;;7.95;2.10;;;;;;;;;;5012673;28;20775;-69
2023/12/22 12:28:35;;;;;;;7.05;2.08;;;;;;;;;;5013090;28;20468;-70
2023/12/22 12:31:03;;;;;;;4.45;1.90;;;;;;;;;;5013178;28;20400;-70
2023/12/22 12:33:30;;;;;;;5.50;2.40;;;;;;;;;;5012777;28;20477;-69
2023/12/22 12:36:00;;;;;;;5.28;1.92;;;;;;;;;;5013588;28;20377;-70
2023/12/22 12:38:37;;;;;;;4.87;1.87;;;;;;;;;;4995570;28;20506;-70
2023/12/22 12:41:05;;;;;;;6.47;2.53;;;;;;;;;;5014050;28;20404;-68
2023/12/22 12:43:32;;;;;;;7.93;2.20;;;;;;;;;;5013701;28;20377;-70
2023/12/22 12:46:05;;;;;;;4.82;2.13;;;;;;;;;;5014006;28;20387;-66
2023/12/22 12:48:31;;;;;;;5.43;2.17;;;;;;;;;;5013826;28;20791;-69
2023/12/22 12:51:02;;;;;;;6.50;2.22;;;;;;;;;;4996008;28;20447;-66
2023/12/22 12:53:28;;;;;;;7.97;2.50;;;;;;;;;;5015538;28;20441;-67
2023/12/22 12:55:56;;;;;;;9.85;2.88;;;;;;;;;;4997736;28;20381;-71
2023/12/22 12:58:27;;;;;;;6.00;2.40;;;;;;;;;;5013270;28;20392;-71
2023/12/22 13:00:57;;;;;;;5.00;2.00;;;;;;;;;;5014419;28;20453;-72
2023/12/22 13:03:23;;;;;;;6.30;2.42;;;;;;;;;;5015146;28;20510;-74
2023/12/22 13:05:49;;;;;;;5.65;2.75;;;;;;;;;;4996932;28;20408;-72
2023/12/22 13:08:15;;;;;;;7.03;2.50;;;;;;;;;;5014140;28;20459;-71
2023/12/22 13:10:41;;;;;;;6.88;2.50;;;;;;;;;;4996259;28;20393;-71
2023/12/22 13:13:07;;;;;;;6.80;2.70;;;;;;;;;;5013719;28;20385;-71
2023/12/22 13:15:34;;;;;;;7.05;2.97;;;;;;;;;;5013845;28;20414;-69
2023/12/22 13:18:00;;;;;;;6.25;2.75;;;;;;;;;;4996602;28;20397;-70
2023/12/22 13:20:26;;;;;;;6.35;2.58;;;;;;;;;;4996174;28;20405;-69
2023/12/22 13:22:52;;;;;;;7.03;2.17;;;;;;;;;;4996272;28;20467;-70
2023/12/22 13:25:18;;;;;;;6.60;2.50;;;;;;;;;;4996230;28;20487;-72
2023/12/22 13:27:45;;;;;;;7.30;2.38;;;;;;;;;;4995725;28;20484;-71
2023/12/22 13:30:11;;;;;;;6.95;2.60;;;;;;;;;;4995218;28;20393;-68
2023/12/22 13:32:37;;;;;;;7.63;2.58;;;;;;;;;;5012821;28;20395;-72
2023/12/22 13:35:04;;;;;;;9.10;3.35;;;;;;;;;;4995211;28;20919;-72
2023/12/22 13:37:30;;;;;;;7.43;3.10;;;;;;;;;;5012141;28;20387;-72
2023/12/22 13:39:58;;;;;;;8.25;3.25;;;;;;;;;;4995713;28;20408;-72
2023/12/22 13:42:24;;;;;;;7.05;3.30;;;;;;;;;;5013159;28;20385;-69
2023/12/22 13:44:52;;;;;;;6.75;3.08;;;;;;;;;;5013972;28;20400;-71
2023/12/22 13:47:18;;;;;;;8.77;3.28;;;;;;;;;;5013745;28;20449;-73
2023/12/22 13:49:44;;;;;;;8.55;3.55;;;;;;;;;;4996030;28;20397;-70
2023/12/22 13:52:32;;;;;;;10.10;3.70;;;;;;;;;;5013071;28;20823;-69
2023/12/22 13:55:00;;;;;;;7.82;3.00;;;;;;;;;;4996551;28;20448;-71
2023/12/22 13:57:26;;;;;;;7.70;2.97;;;;;;;;;;5013503;28;20428;-69
2023/12/22 13:59:53;;;;;;;6.78;2.75;;;;;;;;;;5013386;28;20771;-70
2023/12/22 14:02:22;;;;;;;7.20;2.70;;;;;;;;;;4996146;28;20822;-74
2023/12/22 14:04:49;;;;;;;7.82;2.80;;;;;;;;;;4996208;28;20400;-70
2023/12/22 14:07:15;;;;;;;8.05;2.58;;;;;;;;;;4995836;28;20385;-69
2023/12/22 14:09:41;;;;;;;7.53;3.03;;;;;;;;;;4996122;28;20389;-69
2023/12/22 14:12:07;;;;;;;8.93;3.13;;;;;;;;;;5013057;28;20455;-70
2023/12/22 14:14:33;;;;;;;7.75;2.80;;;;;;;;;;4994838;28;20389;-68
2023/12/22 14:16:59;;;;;;;11.60;2.65;;;;;;;;;;4995482;28;20393;-68
2023/12/22 14:19:25;;;;;;;9.25;3.28;;;;;;;;;;5013324;28;20405;-69
2023/12/22 14:21:51;;;;;;;9.82;5.00;;;;;;;;;;5012496;28;20377;-67
2023/12/22 14:24:17;;;;;;;9.88;4.47;;;;;;;;;;5011405;28;20531;-66
2023/12/22 14:26:53;;;;;;;11.15;5.85;;;;;;;;;;4994008;28;20377;-66
2023/12/22 14:29:19;;;;;;;7.25;3.03;;;;;;;;;;5011777;28;20446;-69
2023/12/22 14:31:45;;;;;;;7.93;2.60;;;;;;;;;;4994127;28;20836;-69
2023/12/22 14:34:13;;;;;;;6.43;2.70;;;;;;;;;;4994052;28;20861;-70
2023/12/22 14:36:39;;;;;;;8.13;2.83;;;;;;;;;;4993848;28;20389;-69